createdAt,value
2023-01-23T00:00:11.829Z,93.37
2023-01-23T00:01:12.061Z,93.66
2023-01-23T00:02:11.930Z,93.66
2023-01-23T00:03:12.012Z,93.56
2023-01-23T00:04:12.178Z,92.99
2023-01-23T00:05:11.975Z,93.37
2023-01-23T00:06:11.694Z,93.47
2023-01-23T00:07:11.673Z,93.28
2023-01-23T00:08:11.921Z,92.8
2023-01-23T00:09:12.022Z,93.37
2023-01-23T00:10:11.980Z,93.28
2023-01-23T00:11:11.850Z,93.32
2023-01-23T00:13:11.550Z,93.09
2023-01-23T00:14:11.524Z,93.18
2023-01-23T00:15:11.509Z,93.18
2023-01-23T00:16:11.604Z,93.04
2023-01-23T00:17:11.475Z,93.42
2023-01-23T00:18:11.443Z,93.51
2023-01-23T00:19:11.683Z,93.18
2023-01-23T00:20:11.402Z,92.99
2023-01-23T00:21:11.638Z,93.23
2023-01-23T00:22:13.472Z,93.23
2023-01-23T00:23:11.595Z,93.13
2023-01-23T00:24:11.579Z,93.13
2023-01-23T00:25:11.696Z,93.13
2023-01-23T00:26:11.669Z,93.18
2023-01-23T00:27:11.515Z,93.23
2023-01-23T00:28:11.251Z,92.85
2023-01-23T00:29:11.493Z,93.13
2023-01-23T00:30:11.468Z,93.32
2023-01-23T00:31:11.666Z,92.85
2023-01-23T00:32:11.428Z,92.85
2023-01-23T00:33:11.391Z,92.47
2023-01-23T00:34:11.380Z,92.57
2023-01-23T00:35:11.118Z,92.24
2023-01-23T00:36:11.090Z,92.8
2023-01-23T00:37:11.311Z,92.47
2023-01-23T00:38:11.150Z,92.29
2023-01-23T00:39:11.271Z,92.99
2023-01-23T00:40:11.012Z,92.99
2023-01-23T00:41:11.375Z,92.43
2023-01-23T00:42:11.093Z,92.24
2023-01-23T00:43:10.930Z,92.43
2023-01-23T00:44:11.204Z,92.43
2023-01-23T00:45:11.173Z,92.33
2023-01-23T00:46:11.288Z,92.8
2023-01-23T00:47:10.852Z,92.24
2023-01-23T00:48:11.092Z,92.61
2023-01-23T00:49:11.073Z,92.61
2023-01-23T00:50:11.046Z,92.61
2023-01-23T00:51:11.174Z,92.61
2023-01-23T00:52:10.746Z,92.52
2023-01-23T00:53:10.990Z,92.52
2023-01-23T00:54:10.965Z,92.9
2023-01-23T00:55:10.950Z,93.18
2023-01-23T00:56:10.941Z,93.18
2023-01-23T00:57:11.024Z,92.61
2023-01-23T00:58:11.024Z,93.18
2023-01-23T00:59:10.861Z,93.28
2023-01-23T01:00:10.845Z,93.18
2023-01-23T01:01:10.575Z,93.18
2023-01-23T01:02:10.565Z,93.28
2023-01-23T01:03:10.977Z,93.56
2023-01-23T01:04:10.766Z,93.47
2023-01-23T01:05:10.489Z,92.9
2023-01-23T01:06:10.469Z,92.99
2023-01-23T01:07:10.698Z,92.71
2023-01-23T01:08:10.429Z,92.33
2023-01-23T01:09:10.663Z,92.61
2023-01-23T01:10:10.643Z,92.61
2023-01-23T01:11:10.368Z,92.8
2023-01-23T01:12:10.619Z,92.71
2023-01-23T01:13:10.707Z,92.61
2023-01-23T01:14:10.680Z,92.61
2023-01-23T01:15:10.291Z,93.56
2023-01-23T01:16:10.672Z,93.09
2023-01-23T01:17:10.247Z,93.37
2023-01-23T01:18:10.508Z,93.56
2023-01-23T01:19:10.534Z,92.99
2023-01-23T01:20:10.441Z,93.18
2023-01-23T01:21:10.211Z,93.47
2023-01-23T01:22:10.397Z,92.8
2023-01-23T01:23:10.382Z,92.61
2023-01-23T01:24:10.357Z,92.52
2023-01-23T01:25:10.338Z,92.52
2023-01-23T01:26:10.343Z,92.61
2023-01-23T01:27:10.298Z,92.61
2023-01-23T01:28:10.277Z,92.61
2023-01-23T01:29:10.384Z,92.33
2023-01-23T01:30:10.369Z,92.43
2023-01-23T01:31:10.594Z,92.52
2023-01-23T01:32:10.220Z,92.33
2023-01-23T01:33:10.178Z,92.33
2023-01-23T01:34:10.182Z,92.33
2023-01-23T01:35:10.227Z,92.33
2023-01-23T01:36:10.110Z,92.43
2023-01-23T01:37:10.722Z,92.52
2023-01-23T01:38:10.949Z,92.61
2023-01-23T01:39:10.951Z,92.43
2023-01-23T01:40:10.928Z,92.43
2023-01-23T01:41:10.928Z,92.71
2023-01-23T01:42:10.871Z,92.24
2023-01-23T01:43:10.870Z,92.43
2023-01-23T01:44:10.823Z,92.61
2023-01-23T01:45:10.929Z,92.43
2023-01-23T01:46:10.957Z,92.33
2023-01-23T01:47:10.776Z,92.33
2023-01-23T01:48:10.483Z,92.33
2023-01-23T01:49:10.742Z,91.86
2023-01-23T01:50:12.284Z,92.05
2023-01-23T01:51:10.728Z,92.14
2023-01-23T01:52:10.673Z,91.96
2023-01-23T01:53:10.638Z,91.77
2023-01-23T01:54:10.615Z,91.86
2023-01-23T01:55:10.341Z,91.77
2023-01-23T01:56:10.330Z,92.24
2023-01-23T01:57:10.558Z,91.96
2023-01-23T01:58:10.542Z,92.43
2023-01-23T01:59:10.522Z,92.52
2023-01-23T02:00:10.252Z,92.61
2023-01-23T02:01:10.676Z,92.43
2023-01-23T02:02:10.478Z,92.43
2023-01-23T02:03:10.434Z,92.8
2023-01-23T02:04:10.411Z,92.9
2023-01-23T02:05:10.140Z,93.37
2023-01-23T02:06:10.129Z,93.28
2023-01-23T02:07:10.102Z,93.28
2023-01-23T02:08:10.371Z,93.28
2023-01-23T02:09:10.309Z,93.28
2023-01-23T02:10:10.040Z,92.9
2023-01-23T02:11:10.269Z,92.99
2023-01-23T02:12:10.140Z,92.71
2023-01-23T02:13:10.241Z,93.09
2023-01-23T02:14:10.216Z,92.52
2023-01-23T02:15:09.931Z,92.99
2023-01-23T02:16:10.283Z,92.8
2023-01-23T02:17:10.281Z,92.99
2023-01-23T02:18:10.080Z,92.99
2023-01-23T02:19:09.887Z,92.8
2023-01-23T02:20:10.089Z,93.18
2023-01-23T02:21:10.099Z,93.47
2023-01-23T02:22:09.791Z,93.18
2023-01-23T02:23:09.771Z,93.37
2023-01-23T02:24:09.751Z,93.28
2023-01-23T02:25:09.993Z,93.37
2023-01-23T02:26:09.970Z,93.37
2023-01-23T02:27:09.690Z,92.99
2023-01-23T02:28:09.668Z,93.56
2023-01-23T02:29:09.902Z,93.94
2023-01-23T02:30:09.885Z,94.03
2023-01-23T02:31:10.181Z,93.56
2023-01-23T02:32:09.712Z,93.84
2023-01-23T02:33:09.944Z,94.13
2023-01-23T02:34:09.678Z,93.94
2023-01-23T02:35:09.792Z,93.94
2023-01-23T02:36:09.759Z,94.32
2023-01-23T02:37:09.742Z,93.66
2023-01-23T02:38:09.723Z,94.13
2023-01-23T02:39:09.730Z,94.13
2023-01-23T02:40:09.682Z,93.84
2023-01-23T02:41:09.661Z,94.51
2023-01-23T02:42:09.647Z,94.6
2023-01-23T02:43:09.632Z,94.7
2023-01-23T02:44:09.361Z,94.79
2023-01-23T02:45:09.576Z,94.89
2023-01-23T02:46:09.756Z,94.6
2023-01-23T02:47:09.281Z,94.32
2023-01-23T02:48:09.262Z,94.79
2023-01-23T02:49:09.614Z,94.79
2023-01-23T02:50:09.682Z,94.79
2023-01-23T02:51:09.659Z,94.13
2023-01-23T02:52:09.460Z,94.51
2023-01-23T02:53:09.162Z,94.03
2023-01-23T02:54:09.387Z,94.7
2023-01-23T02:55:09.123Z,94.51
2023-01-23T02:56:09.348Z,94.79
2023-01-23T02:57:09.078Z,94.41
2023-01-23T02:58:09.052Z,94.51
2023-01-23T02:59:09.302Z,94.79
2023-01-23T03:00:09.265Z,94.13
2023-01-23T03:01:09.071Z,94.13
2023-01-23T03:02:09.340Z,94.32
2023-01-23T03:03:08.954Z,94.22
2023-01-23T03:04:09.196Z,93.94
2023-01-23T03:05:09.386Z,94.7
2023-01-23T03:06:09.009Z,94.6
2023-01-23T03:07:09.133Z,94.6
2023-01-23T03:08:09.106Z,94.51
2023-01-23T03:09:08.834Z,94.6
2023-01-23T03:10:09.067Z,94.98
2023-01-23T03:11:08.802Z,94.51
2023-01-23T03:12:09.028Z,94.41
2023-01-23T03:13:09.010Z,94.51
2023-01-23T03:14:08.998Z,94.7
2023-01-23T03:15:08.969Z,94.7
2023-01-23T03:16:09.061Z,94.51
2023-01-23T03:17:08.689Z,94.7
2023-01-23T03:18:08.927Z,94.6
2023-01-23T03:19:09.161Z,94.41
2023-01-23T03:20:08.880Z,94.7
2023-01-23T03:21:08.959Z,94.79
2023-01-23T03:22:08.940Z,94.79
2023-01-23T03:23:08.810Z,94.51
2023-01-23T03:24:08.785Z,94.7
2023-01-23T03:25:08.760Z,94.6
2023-01-23T03:26:08.481Z,94.7
2023-01-23T03:27:08.479Z,94.6
2023-01-23T03:28:08.704Z,94.7
2023-01-23T03:29:08.687Z,94.89
2023-01-23T03:30:08.657Z,94.79
2023-01-23T03:31:08.720Z,94.7
2023-01-23T03:32:08.634Z,94.41
2023-01-23T03:33:08.597Z,94.79
2023-01-23T03:50:10.345Z,95.64
2023-01-23T03:51:10.199Z,95.26
2023-01-23T03:52:09.782Z,95.83
2023-01-23T03:53:09.763Z,95.83
2023-01-23T03:54:09.985Z,95.59
2023-01-23T03:55:09.720Z,95.97
2023-01-23T03:56:09.692Z,95.59
2023-01-23T03:57:09.921Z,95.64
2023-01-23T03:58:09.899Z,95.4
2023-01-23T03:59:09.881Z,95.31
2023-01-23T04:00:09.869Z,95.21
2023-01-23T04:01:09.880Z,95.21
2023-01-23T04:02:09.819Z,95.21
2023-01-23T04:03:09.975Z,95.5
2023-01-23T04:04:09.772Z,95.59
2023-01-23T04:05:09.764Z,95.12
2023-01-23T04:06:09.983Z,95.31
2023-01-23T04:07:09.723Z,95.5
2023-01-23T04:08:09.459Z,95.4
2023-01-23T04:09:09.673Z,95.21
2023-01-23T04:10:12.062Z,95.21
2023-01-23T04:11:09.646Z,95.5
2023-01-23T04:12:09.353Z,95.31
2023-01-23T04:13:09.599Z,95.31
2023-01-23T04:14:09.565Z,95.03
2023-01-23T04:15:09.553Z,95.4
2023-01-23T04:16:09.563Z,95.21
2023-01-23T04:17:09.518Z,95.4
2023-01-23T04:18:09.491Z,95.78
2023-01-23T04:19:09.221Z,95.4
2023-01-23T04:20:09.442Z,96.25
2023-01-23T04:21:09.170Z,96.44
2023-01-23T04:22:09.638Z,96.54
2023-01-23T04:23:09.402Z,97.01
2023-01-23T04:24:09.356Z,96.82
2023-01-23T04:25:09.346Z,98.05
2023-01-23T04:26:09.060Z,97.48
2023-01-23T04:27:09.335Z,97.48
2023-01-23T04:28:09.050Z,98.14
2023-01-23T04:29:09.035Z,97.96
2023-01-23T04:30:09.009Z,97.96
2023-01-23T04:31:09.387Z,98.61
2023-01-23T04:32:09.234Z,98.8
2023-01-23T04:33:08.946Z,98.99
2023-01-23T04:34:09.193Z,99.99
2023-01-23T04:35:09.158Z,99.99
2023-01-23T04:36:09.165Z,99.99
2023-01-23T04:37:09.123Z,99.99
2023-01-23T04:38:09.335Z,99.99
2023-01-23T04:39:09.084Z,99.99
2023-01-23T04:40:09.064Z,99.99
2023-01-23T04:41:09.043Z,99.99
2023-01-23T04:42:08.780Z,99.99
2023-01-23T04:43:08.997Z,99.99
2023-01-23T04:44:08.718Z,99.99
2023-01-23T04:45:08.702Z,99.99
2023-01-23T04:46:09.087Z,99.99
2023-01-23T04:47:08.919Z,99.99
2023-01-23T04:48:08.906Z,99.99
2023-01-23T04:49:08.873Z,99.99
2023-01-23T04:50:08.890Z,99.99
2023-01-23T04:51:08.959Z,99.99
2023-01-23T04:52:08.810Z,99.99
2023-01-23T04:53:08.801Z,99.99
2023-01-23T04:54:09.024Z,99.99
2023-01-23T04:55:08.496Z,99.99
2023-01-23T04:56:08.469Z,99.99
2023-01-23T04:57:08.706Z,99.99
2023-01-23T04:58:08.433Z,99.99
2023-01-23T04:59:08.407Z,99.99
2023-01-23T05:00:08.387Z,99.99
2023-01-23T05:01:08.785Z,99.99
2023-01-23T05:02:08.738Z,99.99
2023-01-23T05:03:08.580Z,99.99
2023-01-23T05:04:08.332Z,99.99
2023-01-23T05:05:08.555Z,99.99
2023-01-23T05:06:08.708Z,99.99
2023-01-23T05:07:08.491Z,99.99
2023-01-23T05:08:08.480Z,99.99
2023-01-23T05:09:08.206Z,99.99
2023-01-23T05:10:08.685Z,99.99
2023-01-23T05:11:08.153Z,99.99
2023-01-23T05:12:08.404Z,99.99
2023-01-23T05:13:08.364Z,99.99
2023-01-23T05:14:08.359Z,99.99
2023-01-23T05:15:08.345Z,99.99
2023-01-23T05:16:08.193Z,99.99
2023-01-23T05:17:08.051Z,99.99
2023-01-23T05:18:08.290Z,99.99
2023-01-23T05:19:08.243Z,99.99
2023-01-23T05:20:08.225Z,99.99
2023-01-23T05:21:08.201Z,99.99
2023-01-23T05:22:07.952Z,99.99
2023-01-23T05:23:08.166Z,99.99
2023-01-23T05:24:07.895Z,99.99
2023-01-23T05:25:08.116Z,99.99
2023-01-23T05:26:08.348Z,99.99
2023-01-23T05:27:08.083Z,99.99
2023-01-23T05:28:09.759Z,99.99
2023-01-23T05:29:08.036Z,99.99
2023-01-23T05:30:07.755Z,99.99
2023-01-23T05:31:08.305Z,99.99
2023-01-23T05:32:07.981Z,99.99
2023-01-23T05:33:07.687Z,99.99
2023-01-23T05:34:07.925Z,99.99
2023-01-23T05:35:07.676Z,99.99
2023-01-23T05:36:07.894Z,99.99
2023-01-23T05:37:07.599Z,99.99
2023-01-23T05:38:07.577Z,99.99
2023-01-23T05:39:07.829Z,99.99
2023-01-23T05:40:07.795Z,99.99
2023-01-23T05:41:07.784Z,99.99
2023-01-23T05:42:08.031Z,99.99
2023-01-23T05:43:07.489Z,99.99
2023-01-23T05:44:07.718Z,99.99
2023-01-23T05:45:07.438Z,99.99
2023-01-23T05:46:07.808Z,99.99
2023-01-23T05:47:08.068Z,99.99
2023-01-23T05:48:08.046Z,99.99
2023-01-23T05:49:08.056Z,99.99
2023-01-23T05:50:08.013Z,99.99
2023-01-23T05:51:08.097Z,99.99
2023-01-23T05:52:07.972Z,99.99
2023-01-23T05:53:07.959Z,99.99
2023-01-23T05:54:07.927Z,99.99
2023-01-23T05:55:07.910Z,99.99
2023-01-23T05:56:07.874Z,99.99
2023-01-23T05:57:07.600Z,99.99
2023-01-23T05:58:08.112Z,99.99
2023-01-23T05:59:07.676Z,99.98
2023-01-23T06:00:07.796Z,99.79
2023-01-23T06:01:07.559Z,99.6
2023-01-23T06:02:07.756Z,99.22
2023-01-23T06:03:07.743Z,99.04
2023-01-23T06:04:07.449Z,98.85
2023-01-23T06:05:07.684Z,98.47
2023-01-23T06:06:07.661Z,98.38
2023-01-23T06:07:07.659Z,98.28
2023-01-23T06:08:07.630Z,97.72
2023-01-23T06:09:07.612Z,97.72
2023-01-23T06:10:09.742Z,97.81
2023-01-23T06:11:07.569Z,96.77
2023-01-23T06:12:07.601Z,96.39
2023-01-23T06:13:07.516Z,96.11
2023-01-23T06:14:07.737Z,96.39
2023-01-23T06:15:07.482Z,95.73
2023-01-23T06:16:09.732Z,96.39
2023-01-23T06:17:07.430Z,96.39
2023-01-23T06:18:07.490Z,96.77
2023-01-23T06:19:07.141Z,97.01
2023-01-23T06:20:07.371Z,97.15
2023-01-23T06:21:07.092Z,97.91
2023-01-23T06:22:07.321Z,97.15
2023-01-23T06:23:07.302Z,97.2
2023-01-23T06:24:07.293Z,96.73
2023-01-23T06:25:07.799Z,96.44
2023-01-23T06:26:07.517Z,96.25
2023-01-23T06:27:07.742Z,96.82
2023-01-23T06:28:07.739Z,96.16
2023-01-23T06:29:07.710Z,96.06
2023-01-23T06:30:07.944Z,96.25
2023-01-23T06:31:07.781Z,96.35
2023-01-23T06:32:07.658Z,96.44
2023-01-23T06:33:07.371Z,96.16
2023-01-23T06:34:07.607Z,95.87
2023-01-23T06:35:07.577Z,96.16
2023-01-23T06:36:07.305Z,95.4
2023-01-23T06:37:07.287Z,95.5
2023-01-23T06:38:07.522Z,96.06
2023-01-23T06:39:07.498Z,95.59
2023-01-23T06:40:07.224Z,95.78
2023-01-23T06:41:07.474Z,95.87
2023-01-23T06:42:07.180Z,95.68
2023-01-23T06:43:07.416Z,95.78
2023-01-23T06:44:07.400Z,95.59
2023-01-23T06:45:07.372Z,95.4
2023-01-23T06:46:07.846Z,95.59
2023-01-23T06:47:07.338Z,95.5
2023-01-23T06:48:07.312Z,95.78
2023-01-23T06:49:08.760Z,95.68
2023-01-23T06:50:08.231Z,95.97
2023-01-23T06:51:08.115Z,95.78
2023-01-23T06:52:08.191Z,95.97
2023-01-23T06:53:08.154Z,95.4
2023-01-23T06:54:07.881Z,95.68
2023-01-23T06:55:08.119Z,95.5
2023-01-23T06:56:08.112Z,95.21
2023-01-23T06:57:08.079Z,95.31
2023-01-23T06:58:08.060Z,95.5
2023-01-23T06:59:08.059Z,95.68
2023-01-23T07:00:08.073Z,95.4
2023-01-23T07:01:08.289Z,95.21
2023-01-23T07:02:08.539Z,95.4
2023-01-23T07:03:08.118Z,95.03
2023-01-23T07:04:07.978Z,95.5
2023-01-23T07:05:07.961Z,94.93
2023-01-23T07:06:08.194Z,95.03
2023-01-23T07:07:08.182Z,94.84
2023-01-23T07:08:08.151Z,94.84
2023-01-23T07:09:08.136Z,94.37
2023-01-23T07:10:07.862Z,94.65
2023-01-23T07:11:07.838Z,94.56
2023-01-23T07:12:08.089Z,94.65
2023-01-23T07:13:07.799Z,94.56
2023-01-23T07:14:08.061Z,93.8
2023-01-23T07:15:08.008Z,94.56
2023-01-23T07:16:08.117Z,94.03
2023-01-23T07:17:07.976Z,94.89
2023-01-23T07:18:08.204Z,94.03
2023-01-23T07:19:07.956Z,94.79
2023-01-23T07:20:07.947Z,94.79
2023-01-23T07:21:07.889Z,94.6
2023-01-23T07:22:07.871Z,94.7
2023-01-23T07:23:07.872Z,94.79
2023-01-23T07:24:07.820Z,93.84
2023-01-23T07:25:07.807Z,94.22
2023-01-23T07:26:07.778Z,94.22
2023-01-23T07:27:07.761Z,94.22
2023-01-23T07:28:07.744Z,93.84
2023-01-23T07:29:07.462Z,93.47
2023-01-23T07:30:07.696Z,93.47
2023-01-23T07:31:08.110Z,93.56
2023-01-23T07:32:10.063Z,93.18
2023-01-23T07:33:07.401Z,93.66
2023-01-23T07:34:07.867Z,92.8
2023-01-23T07:35:07.614Z,93.56
2023-01-23T07:36:07.324Z,92.99
2023-01-23T07:37:07.600Z,92.52
2023-01-23T07:38:07.280Z,92.52
2023-01-23T07:39:07.531Z,92.24
2023-01-23T07:40:07.504Z,92.24
2023-01-23T07:41:07.493Z,92.52
2023-01-23T07:42:07.474Z,92.33
2023-01-23T07:43:07.450Z,92.05
2023-01-23T07:44:07.454Z,91.96
2023-01-23T07:45:07.143Z,92.14
2023-01-23T07:46:07.119Z,91.96
2023-01-23T07:47:07.123Z,91.77
2023-01-23T07:48:07.342Z,92.14
2023-01-23T07:49:07.352Z,91.77
2023-01-23T07:50:07.714Z,92.14
2023-01-23T07:51:07.433Z,92.52
2023-01-23T07:52:07.160Z,92.9
2023-01-23T07:53:07.414Z,92.9
2023-01-23T07:54:07.383Z,92.99
2023-01-23T07:55:07.095Z,92.47
2023-01-23T07:56:07.075Z,92.38
2023-01-23T07:57:07.316Z,92.71
2023-01-23T07:58:07.299Z,92.76
2023-01-23T07:59:07.297Z,92.94
2023-01-23T08:00:07.260Z,93.51
2023-01-23T08:01:07.347Z,94.08
2023-01-23T08:02:06.976Z,94.18
2023-01-23T08:03:07.198Z,94.84
2023-01-23T08:04:07.358Z,94.65
2023-01-23T08:05:07.158Z,94.56
2023-01-23T08:06:07.384Z,94.56
2023-01-23T08:07:06.879Z,94.65
2023-01-23T08:08:15.503Z,95.12
2023-01-23T08:09:07.088Z,95.5
2023-01-23T08:10:06.823Z,95.12
2023-01-23T08:11:07.033Z,95.59
2023-01-23T08:12:07.024Z,95.5
2023-01-23T08:13:06.737Z,95.5
2023-01-23T08:14:07.018Z,95.59
2023-01-23T08:15:06.968Z,95.97
2023-01-23T08:16:07.034Z,95.69
2023-01-23T08:17:06.967Z,96.64
2023-01-23T08:18:06.949Z,95.59
2023-01-23T08:19:06.899Z,95.88
2023-01-23T08:20:06.870Z,95.5
2023-01-23T08:21:06.845Z,95.59
2023-01-23T08:22:07.066Z,95.4
2023-01-23T08:23:06.562Z,95.88
2023-01-23T08:24:06.520Z,96.07
2023-01-23T08:25:06.773Z,96.64
2023-01-23T08:26:06.743Z,95.88
2023-01-23T08:27:06.760Z,97.49
2023-01-23T08:28:06.717Z,97.77
2023-01-23T08:29:06.429Z,98.52
2023-01-23T08:30:06.688Z,99.09
2023-01-23T08:31:09.096Z,98.33
2023-01-23T08:32:06.737Z,98.24
2023-01-23T08:33:06.651Z,97.77
2023-01-23T08:34:06.606Z,98.62
2023-01-23T08:35:06.561Z,98.33
2023-01-23T08:36:06.576Z,98.24
2023-01-23T08:37:06.529Z,98.71
2023-01-23T08:38:06.740Z,98.9
2023-01-23T08:39:06.483Z,99.09
2023-01-23T08:40:06.478Z,98.81
2023-01-23T08:41:06.471Z,99.76
2023-01-23T08:42:06.165Z,99.95
2023-01-23T08:43:06.143Z,99.99
2023-01-23T08:44:06.384Z,99.99
2023-01-23T08:45:06.115Z,99.99
2023-01-23T08:46:06.192Z,99.99
2023-01-23T08:47:06.326Z,99.99
2023-01-23T08:48:06.302Z,99.99
2023-01-23T08:49:06.293Z,99.99
2023-01-23T08:50:06.003Z,99.99
2023-01-23T08:51:06.321Z,99.99
2023-01-23T08:52:06.243Z,99.99
2023-01-23T08:53:05.959Z,99.99
2023-01-23T08:54:06.429Z,99.99
2023-01-23T08:55:06.215Z,99.99
2023-01-23T08:56:05.902Z,99.99
2023-01-23T08:57:06.128Z,99.99
2023-01-23T08:58:06.106Z,99.99
2023-01-23T08:59:05.854Z,99.99
2023-01-23T09:00:06.068Z,99.99
2023-01-23T09:01:06.263Z,99.99
2023-01-23T09:02:05.904Z,99.99
2023-01-23T09:03:06.027Z,99.99
2023-01-23T09:04:05.749Z,99.99
2023-01-23T09:05:05.970Z,99.99
2023-01-23T09:06:05.967Z,99.99
2023-01-23T09:07:05.682Z,99.99
2023-01-23T09:08:05.916Z,99.99
2023-01-23T09:09:05.897Z,99.99
2023-01-23T09:10:06.017Z,99.99
2023-01-23T09:11:05.852Z,99.99
2023-01-23T09:12:05.843Z,99.99
2023-01-23T09:13:05.819Z,99.99
2023-01-23T09:14:05.533Z,99.99
2023-01-23T09:15:05.772Z,99.99
2023-01-23T09:16:05.778Z,99.99
2023-01-23T09:17:05.733Z,99.99
2023-01-23T09:18:05.714Z,99.99
2023-01-23T09:19:05.702Z,99.99
2023-01-23T09:20:05.675Z,99.99
2023-01-23T09:21:07.876Z,99.99
2023-01-23T09:22:05.392Z,99.99
2023-01-23T09:23:05.366Z,99.99
2023-01-23T09:24:05.601Z,99.99
2023-01-23T09:25:05.575Z,99.99
2023-01-23T09:26:05.797Z,99.99
2023-01-23T09:27:05.308Z,99.99
2023-01-23T09:28:05.528Z,99.99
2023-01-23T09:29:05.510Z,99.99
2023-01-23T09:30:05.477Z,99.99
2023-01-23T09:31:05.550Z,99.99
2023-01-23T09:32:05.596Z,99.99
2023-01-23T09:33:05.180Z,99.99
2023-01-23T09:34:05.144Z,99.99
2023-01-23T09:35:05.400Z,99.99
2023-01-23T09:36:05.116Z,99.99
2023-01-23T09:37:05.358Z,99.99
2023-01-23T09:38:05.077Z,99.99
2023-01-23T09:39:05.053Z,99.99
2023-01-23T09:40:05.299Z,99.99
2023-01-23T09:41:05.265Z,99.99
2023-01-23T09:42:07.543Z,99.99
2023-01-23T09:43:05.229Z,99.99
2023-01-23T09:44:04.944Z,99.99
2023-01-23T09:45:04.938Z,99.99
2023-01-23T09:46:05.076Z,99.99
2023-01-23T09:47:05.252Z,99.99
2023-01-23T09:48:05.125Z,99.99
2023-01-23T09:49:05.111Z,99.99
2023-01-23T09:50:05.110Z,99.99
2023-01-23T09:51:04.992Z,99.99
2023-01-23T09:52:05.052Z,99.99
2023-01-23T09:53:05.056Z,99.99
2023-01-23T09:54:04.775Z,99.99
2023-01-23T09:55:04.997Z,99.99
2023-01-23T09:56:04.978Z,99.99
2023-01-23T09:57:04.698Z,99.99
2023-01-23T09:58:05.181Z,99.99
2023-01-23T09:59:04.967Z,99.99
2023-01-23T10:00:04.894Z,99.99
2023-01-23T10:01:04.936Z,99.99
2023-01-23T10:02:04.969Z,99.99
2023-01-23T10:03:04.863Z,99.99
2023-01-23T10:04:04.954Z,99.99
2023-01-23T10:05:04.810Z,99.99
2023-01-23T10:06:04.519Z,99.99
2023-01-23T10:07:04.763Z,99.99
2023-01-23T10:08:04.506Z,99.99
2023-01-23T10:09:04.478Z,99.99
2023-01-23T10:10:06.870Z,99.99
2023-01-23T10:11:04.696Z,99.99
2023-01-23T10:12:04.676Z,99.99
2023-01-23T10:13:04.650Z,99.99
2023-01-23T10:14:05.273Z,99.99
2023-01-23T10:15:04.611Z,99.99
2023-01-23T10:16:04.345Z,99.99
2023-01-23T10:17:04.643Z,99.99
2023-01-23T10:18:04.300Z,99.99
2023-01-23T10:19:04.285Z,99.99
2023-01-23T10:20:04.551Z,99.99
2023-01-23T10:21:04.578Z,99.99
2023-01-23T10:22:04.508Z,99.99
2023-01-23T10:23:04.466Z,99.99
2023-01-23T10:24:04.214Z,99.99
2023-01-23T10:25:04.224Z,99.99
2023-01-23T10:26:04.406Z,99.99
2023-01-23T10:27:04.385Z,99.99
2023-01-23T10:28:04.363Z,99.99
2023-01-23T10:29:04.363Z,99.99
2023-01-23T10:30:04.643Z,99.99
2023-01-23T10:31:04.538Z,99.99
2023-01-23T10:32:04.303Z,99.99
2023-01-23T10:33:04.274Z,99.99
2023-01-23T10:34:07.633Z,99.99
2023-01-23T10:35:04.273Z,99.99
2023-01-23T10:36:04.242Z,99.99
2023-01-23T10:37:03.969Z,99.99
2023-01-23T10:38:04.093Z,99.99
2023-01-23T10:39:04.161Z,99.99
2023-01-23T10:40:03.889Z,99.99
2023-01-23T10:41:04.146Z,99.99
2023-01-23T10:42:05.391Z,99.99
2023-01-23T10:43:04.092Z,99.99
2023-01-23T10:44:04.076Z,99.99
2023-01-23T10:45:04.051Z,99.99
2023-01-23T10:46:04.359Z,99.99
2023-01-23T10:47:04.025Z,99.99
2023-01-23T10:48:06.391Z,99.99
2023-01-23T10:49:03.755Z,99.99
2023-01-23T10:50:03.953Z,99.99
2023-01-23T10:51:03.793Z,99.99
2023-01-23T10:52:03.978Z,99.99
2023-01-23T10:53:03.645Z,99.99
2023-01-23T10:54:08.541Z,99.99
2023-01-23T10:55:03.871Z,99.99
2023-01-23T10:56:03.858Z,99.99
2023-01-23T10:57:03.893Z,99.99
2023-01-23T10:58:03.573Z,99.99
2023-01-23T10:59:03.564Z,99.99
2023-01-23T11:00:03.816Z,99.99
2023-01-23T11:01:03.931Z,99.99
2023-01-23T11:02:04.181Z,99.99
2023-01-23T11:03:03.615Z,99.99
2023-01-23T11:04:03.436Z,99.99
2023-01-23T11:05:03.750Z,99.99
2023-01-23T11:06:03.684Z,99.99
2023-01-23T11:07:03.388Z,99.99
2023-01-23T11:08:03.387Z,99.99
2023-01-23T11:09:03.363Z,99.99
2023-01-23T11:10:03.327Z,99.99
2023-01-23T11:11:03.567Z,99.99
2023-01-23T11:12:03.550Z,99.99
2023-01-23T11:13:03.281Z,99.99
2023-01-23T11:14:03.513Z,99.99
2023-01-23T11:15:03.491Z,99.99
2023-01-23T11:16:03.558Z,99.99
2023-01-23T11:17:03.197Z,99.99
2023-01-23T11:18:03.762Z,99.99
2023-01-23T11:19:03.418Z,99.99
2023-01-23T11:20:03.131Z,99.99
2023-01-23T11:21:03.153Z,99.99
2023-01-23T11:22:03.346Z,99.99
2023-01-23T11:23:03.090Z,99.99
2023-01-23T11:24:05.554Z,99.99
2023-01-23T11:25:03.307Z,99.99
2023-01-23T11:26:03.019Z,99.99
2023-01-23T11:27:03.256Z,99.99
2023-01-23T11:28:03.241Z,99.99
2023-01-23T11:29:02.966Z,99.99
2023-01-23T11:30:03.211Z,99.99
2023-01-23T11:31:16.463Z,99.99
2023-01-23T11:32:03.487Z,99.99
2023-01-23T11:33:03.153Z,99.99
2023-01-23T11:34:03.467Z,99.99
2023-01-23T11:35:03.124Z,99.99
2023-01-23T11:36:02.831Z,99.99
2023-01-23T11:37:03.065Z,99.99
2023-01-23T11:38:03.054Z,99.99
2023-01-23T11:39:03.035Z,99.99
2023-01-23T11:40:03.017Z,99.99
2023-01-23T11:41:02.764Z,99.99
2023-01-23T11:42:02.989Z,99.99
2023-01-23T11:43:02.967Z,99.99
2023-01-23T11:44:03.776Z,99.99
2023-01-23T11:45:02.658Z,99.99
2023-01-23T11:46:03.540Z,99.99
2023-01-23T11:47:03.433Z,99.99
2023-01-23T11:48:03.414Z,99.99
2023-01-23T11:49:03.127Z,99.99
2023-01-23T11:50:03.647Z,99.99
2023-01-23T11:51:03.491Z,99.99
2023-01-23T11:52:03.081Z,99.99
2023-01-23T11:53:03.084Z,99.99
2023-01-23T11:54:03.315Z,99.99
2023-01-23T11:55:03.280Z,99.99
2023-01-23T11:56:03.258Z,99.99
2023-01-23T11:57:02.973Z,99.99
2023-01-23T11:58:02.958Z,99.99
2023-01-23T11:59:03.347Z,99.99
2023-01-23T12:00:03.170Z,99.99
2023-01-23T12:01:03.161Z,99.99
2023-01-23T12:02:06.485Z,99.99
2023-01-23T12:03:03.259Z,99.99
2023-01-23T12:04:03.253Z,99.99
2023-01-23T12:05:02.822Z,99.99
2023-01-23T12:06:21.337Z,99.99
2023-01-23T12:07:03.057Z,99.99
2023-01-23T12:08:02.781Z,99.99
2023-01-23T12:09:02.998Z,99.99
2023-01-23T12:10:02.985Z,99.99
2023-01-23T12:11:02.973Z,99.99
2023-01-23T12:12:03.016Z,99.99
2023-01-23T12:13:02.666Z,99.99
2023-01-23T12:14:03.314Z,99.99
2023-01-23T12:15:02.889Z,99.99
2023-01-23T12:16:02.969Z,99.99
2023-01-23T12:17:02.876Z,99.99
2023-01-23T12:19:02.809Z,99.99
2023-01-23T12:20:02.572Z,99.99
2023-01-23T12:21:02.535Z,99.99
2023-01-23T12:22:02.994Z,99.99
2023-01-23T12:23:02.807Z,99.99
2023-01-23T12:24:02.453Z,99.99
2023-01-23T12:25:02.461Z,99.99
2023-01-23T12:26:02.422Z,99.99
2023-01-23T12:27:02.437Z,99.99
2023-01-23T12:28:02.389Z,99.99
2023-01-23T12:29:03.659Z,99.99
2023-01-23T12:30:02.638Z,99.99
2023-01-23T12:31:04.626Z,99.99
2023-01-23T12:32:02.505Z,99.99
2023-01-23T12:33:02.539Z,99.99
2023-01-23T12:34:02.270Z,99.99
2023-01-23T12:35:02.545Z,99.99
2023-01-23T12:36:02.524Z,99.99
2023-01-23T12:37:25.723Z,99.99
2023-01-23T12:38:02.573Z,99.99
2023-01-23T12:39:02.172Z,99.99
2023-01-23T12:40:02.446Z,99.99
2023-01-23T12:41:02.396Z,99.99
2023-01-23T12:42:02.376Z,99.99
2023-01-23T12:43:02.371Z,99.99
2023-01-23T12:44:02.347Z,99.99
2023-01-23T12:45:02.352Z,99.99
2023-01-23T12:46:02.368Z,99.99
2023-01-23T12:47:02.393Z,99.99
2023-01-23T12:48:03.238Z,99.99
2023-01-23T12:49:02.257Z,99.99
2023-01-23T12:50:01.963Z,99.99
2023-01-23T12:51:02.370Z,99.99
2023-01-23T12:52:02.188Z,99.99
2023-01-23T12:53:02.191Z,99.99
2023-01-23T12:54:02.299Z,99.99
2023-01-23T12:55:02.133Z,99.99
2023-01-23T12:56:02.172Z,99.99
2023-01-23T12:57:02.121Z,99.99
2023-01-23T12:58:10.793Z,99.99
2023-01-23T12:59:01.807Z,99.99
2023-01-23T13:00:01.827Z,99.99
2023-01-23T13:01:02.021Z,99.99
2023-01-23T13:02:01.826Z,99.99
2023-01-23T13:03:01.732Z,99.99
2023-01-23T13:04:01.968Z,99.99
2023-01-23T13:05:01.976Z,99.99
2023-01-23T13:06:01.936Z,99.99
2023-01-23T13:07:01.900Z,99.99
2023-01-23T13:08:01.622Z,99.99
2023-01-23T13:09:18.327Z,99.99
2023-01-23T13:10:01.952Z,99.99
2023-01-23T13:11:01.594Z,99.99
2023-01-23T13:12:01.810Z,99.99